createdAt,value
2023-02-08T00:00:47.847Z,22.42
2023-02-08T00:03:14.361Z,23.70
2023-02-08T00:05:40.946Z,17.75
2023-02-08T00:08:07.865Z,19.77
2023-02-08T00:10:34.900Z,18.05
2023-02-08T00:13:02.044Z,17.65
2023-02-08T00:15:28.680Z,18.15
2023-02-08T00:17:55.237Z,16.58
2023-02-08T00:20:21.840Z,16.73
2023-02-08T00:22:48.605Z,17.98
2023-02-08T00:25:15.160Z,18.75
2023-02-08T00:27:41.723Z,21.00
2023-02-08T00:30:09.124Z,23.08
2023-02-08T00:32:35.751Z,23.55
2023-02-08T00:35:02.262Z,21.35
2023-02-08T00:37:28.843Z,19.67
2023-02-08T00:39:55.339Z,19.98
2023-02-08T00:42:23.092Z,20.10
2023-02-08T00:44:49.635Z,19.45
2023-02-08T00:47:16.282Z,20.63
2023-02-08T00:49:42.828Z,19.17
2023-02-08T00:52:09.465Z,19.58
2023-02-08T00:54:36.043Z,19.33
2023-02-08T00:57:02.611Z,20.65
2023-02-08T00:59:29.243Z,19.63
2023-02-08T01:01:55.990Z,27.65
2023-02-08T01:04:22.517Z,21.40
2023-02-08T01:06:49.103Z,20.83
2023-02-08T01:09:15.712Z,22.20
2023-02-08T01:11:42.464Z,21.48
2023-02-08T01:14:09.435Z,23.30
2023-02-08T01:16:36.460Z,21.38
2023-02-08T01:19:05.061Z,24.70
2023-02-08T01:21:34.009Z,23.55
2023-02-08T01:24:01.578Z,23.80
2023-02-08T01:26:28.536Z,23.63
2023-02-08T01:28:56.364Z,22.33
2023-02-08T01:31:29.648Z,22.40
2023-02-08T01:33:57.919Z,21.90
2023-02-08T01:36:25.100Z,21.80
2023-02-08T01:38:51.764Z,20.30
2023-02-08T01:41:23.845Z,20.48
2023-02-08T01:44:02.430Z,26.60
2023-02-08T01:46:30.175Z,23.33
2023-02-08T01:49:01.709Z,24.52
2023-02-08T01:51:33.918Z,21.02
2023-02-08T01:54:03.991Z,21.90
2023-02-08T01:56:34.284Z,20.05
2023-02-08T01:59:04.811Z,19.83
2023-02-08T02:01:31.970Z,21.10
2023-02-08T02:04:05.389Z,20.52
2023-02-08T02:06:37.149Z,23.85
2023-02-08T02:09:42.280Z,19.08
2023-02-08T02:12:09.960Z,21.45
2023-02-08T02:14:38.985Z,20.48
2023-02-08T02:17:08.526Z,22.48
2023-02-08T02:19:46.191Z,22.70
2023-02-08T02:22:27.819Z,21.77
2023-02-08T02:25:45.055Z,23.88
2023-02-08T02:28:17.313Z,23.08
2023-02-08T02:31:16.344Z,23.80
2023-02-08T02:33:55.595Z,18.65
2023-02-08T02:36:53.377Z,17.73
2023-02-08T02:39:34.184Z,20.48
2023-02-08T02:42:31.917Z,19.90
2023-02-08T02:45:07.728Z,18.35
2023-02-08T02:47:42.010Z,24.70
2023-02-08T02:50:37.226Z,21.10
2023-02-08T02:53:11.572Z,18.45
2023-02-08T02:55:44.235Z,22.90
2023-02-08T02:58:13.590Z,20.08
2023-02-08T03:00:41.091Z,20.00
2023-02-08T03:03:21.316Z,19.50
2023-02-08T03:05:48.668Z,27.73
2023-02-08T03:08:30.643Z,20.60
2023-02-08T03:11:14.622Z,21.23
2023-02-08T03:14:02.796Z,21.20
2023-02-08T03:16:38.427Z,22.60
2023-02-08T03:19:22.576Z,21.35
2023-02-08T03:22:01.778Z,21.88
2023-02-08T03:24:36.845Z,18.02
2023-02-08T03:27:12.953Z,17.55
2023-02-08T03:29:44.113Z,18.67
2023-02-08T03:32:17.284Z,21.08
2023-02-08T03:34:52.985Z,17.08
2023-02-08T03:37:31.058Z,20.13
2023-02-08T03:40:07.660Z,19.08
2023-02-08T03:42:36.900Z,21.92
2023-02-08T03:45:12.797Z,20.15
2023-02-08T03:47:43.013Z,23.52
2023-02-08T03:50:12.546Z,19.23
2023-02-08T03:52:39.672Z,21.85
2023-02-08T03:55:13.832Z,14.90
2023-02-08T03:57:52.840Z,21.15
2023-02-08T04:00:21.866Z,19.23
2023-02-08T04:02:54.724Z,19.15
2023-02-08T04:05:22.168Z,20.98
2023-02-08T04:07:48.775Z,22.17
2023-02-08T04:10:15.862Z,20.10
2023-02-08T04:12:43.206Z,18.33
2023-02-08T04:15:09.990Z,19.52
2023-02-08T04:17:36.671Z,20.52
2023-02-08T04:20:03.627Z,20.08
2023-02-08T04:22:30.313Z,20.05
2023-02-08T04:24:56.893Z,19.95
2023-02-08T04:27:23.420Z,22.77
2023-02-08T04:29:50.084Z,19.05
2023-02-08T04:32:16.614Z,20.45
2023-02-08T04:34:43.183Z,17.85
2023-02-08T04:37:11.084Z,23.52
2023-02-08T04:39:37.929Z,20.15
2023-02-08T04:42:04.615Z,20.33
2023-02-08T04:44:34.016Z,25.75
2023-02-08T04:47:00.781Z,22.58
2023-02-08T04:49:27.388Z,23.75
2023-02-08T04:51:54.178Z,20.98
2023-02-08T04:54:21.037Z,22.67
2023-02-08T04:56:47.670Z,22.13
2023-02-08T04:59:14.241Z,19.98
2023-02-08T05:01:40.908Z,18.50
2023-02-08T05:04:07.514Z,22.33
2023-02-08T05:06:34.081Z,20.60
2023-02-08T05:09:00.603Z,22.27
2023-02-08T05:11:27.491Z,21.88
2023-02-08T05:13:54.078Z,18.88
2023-02-08T05:16:20.637Z,18.48
2023-02-08T05:18:47.280Z,23.48
2023-02-08T05:21:13.878Z,20.80
2023-02-08T05:23:41.580Z,20.15
2023-02-08T05:26:09.816Z,22.45
2023-02-08T05:28:36.835Z,20.13
2023-02-08T05:31:23.533Z,23.70
2023-02-08T05:33:51.686Z,21.52
2023-02-08T05:36:19.543Z,25.15
2023-02-08T05:38:46.139Z,21.70
2023-02-08T05:41:12.917Z,22.33
2023-02-08T05:43:39.450Z,21.88
2023-02-08T05:46:05.922Z,22.60
2023-02-08T05:48:32.721Z,20.17
2023-02-08T05:50:59.666Z,20.33
2023-02-08T05:53:27.385Z,22.17
2023-02-08T05:55:54.169Z,18.98
2023-02-08T05:58:20.716Z,17.98
2023-02-08T06:00:47.457Z,19.88
2023-02-08T06:03:14.308Z,22.83
2023-02-08T06:05:41.728Z,20.70
2023-02-08T06:08:09.176Z,20.38
2023-02-08T06:10:36.035Z,19.02
2023-02-08T06:13:03.480Z,19.10
2023-02-08T06:15:30.098Z,20.48
2023-02-08T06:17:56.732Z,23.60
2023-02-08T06:20:23.602Z,22.85
2023-02-08T06:22:50.274Z,16.55
2023-02-08T06:25:17.043Z,21.02
2023-02-08T06:27:43.617Z,20.75
2023-02-08T06:30:10.908Z,18.95
2023-02-08T06:32:37.570Z,18.10
2023-02-08T06:35:04.124Z,18.67
2023-02-08T06:37:30.646Z,19.60
2023-02-08T06:39:57.216Z,20.65
2023-02-08T06:42:23.977Z,19.20
2023-02-08T06:44:55.092Z,20.13
2023-02-08T06:49:52.372Z,18.00
2023-02-08T06:52:19.641Z,20.13
2023-02-08T06:54:46.323Z,21.77
2023-02-08T06:57:13.359Z,18.98
2023-02-08T06:59:40.732Z,18.05
2023-02-08T07:02:18.432Z,19.92
2023-02-08T07:04:48.280Z,18.85
2023-02-08T07:07:16.692Z,20.92
2023-02-08T07:09:43.556Z,16.35
2023-02-08T07:12:10.628Z,20.25
2023-02-08T07:14:40.260Z,19.77
2023-02-08T07:17:06.976Z,19.67
2023-02-08T07:19:33.733Z,18.63
2023-02-08T07:22:07.216Z,20.08
2023-02-08T07:24:39.923Z,18.30
2023-02-08T07:27:09.658Z,17.75
2023-02-08T07:29:36.696Z,18.38
2023-02-08T07:32:05.539Z,24.40
2023-02-08T07:34:34.983Z,18.05
2023-02-08T07:37:01.906Z,22.52
2023-02-08T07:39:28.820Z,22.05
2023-02-08T07:41:55.437Z,20.60
2023-02-08T07:44:22.012Z,22.30
2023-02-08T07:46:48.648Z,24.13
2023-02-08T07:49:15.316Z,20.20
2023-02-08T07:51:41.909Z,21.15
2023-02-08T07:54:08.547Z,26.25
2023-02-08T07:56:35.090Z,22.17
2023-02-08T07:59:01.605Z,19.70
2023-02-08T08:01:28.193Z,23.00
2023-02-08T08:03:54.822Z,21.50
2023-02-08T08:06:22.978Z,24.17
2023-02-08T08:08:49.809Z,23.02
2023-02-08T08:11:17.641Z,23.67
2023-02-08T08:13:44.279Z,25.33
2023-02-08T08:16:10.891Z,26.63
2023-02-08T08:18:37.492Z,25.17
2023-02-08T08:21:04.724Z,24.02
2023-02-08T08:23:33.399Z,25.52
2023-02-08T08:26:00.886Z,22.77
2023-02-08T08:28:28.146Z,23.60
2023-02-08T08:30:54.907Z,27.65
2023-02-08T08:33:21.534Z,26.70
2023-02-08T08:35:48.116Z,23.95
2023-02-08T08:38:14.623Z,27.35
2023-02-08T08:40:41.627Z,28.77
2023-02-08T08:43:08.255Z,32.92
2023-02-08T08:45:36.303Z,34.90
2023-02-08T08:48:05.928Z,31.73
2023-02-08T08:50:32.476Z,33.42
2023-02-08T08:52:59.099Z,35.25
2023-02-08T08:55:26.243Z,27.67
2023-02-08T08:57:53.828Z,25.50
2023-02-08T09:00:27.255Z,25.02
2023-02-08T09:02:54.061Z,21.25
2023-02-08T09:05:20.644Z,21.25
2023-02-08T09:07:47.248Z,23.10
2023-02-08T09:10:13.798Z,21.63
2023-02-08T09:12:41.526Z,20.60
2023-02-08T09:15:08.478Z,19.05
2023-02-08T09:17:35.614Z,24.30
2023-02-08T09:20:04.691Z,26.88
2023-02-08T09:22:31.655Z,25.90
2023-02-08T09:24:58.204Z,26.10
2023-02-08T09:27:24.773Z,27.70
2023-02-08T09:29:51.298Z,22.85
2023-02-08T09:32:17.951Z,21.05
2023-02-08T09:34:44.503Z,23.42
2023-02-08T09:37:11.014Z,20.95
2023-02-08T09:39:37.499Z,24.55
2023-02-08T09:42:15.508Z,23.52
2023-02-08T09:44:53.441Z,22.92
2023-02-08T09:47:35.537Z,22.73
2023-02-08T09:50:13.114Z,23.02
2023-02-08T09:52:45.497Z,20.25
2023-02-08T09:55:27.707Z,22.92
2023-02-08T09:57:56.820Z,20.45
2023-02-08T10:00:42.545Z,23.75
2023-02-08T10:03:25.019Z,21.13
2023-02-08T10:05:51.641Z,19.60
2023-02-08T10:08:18.409Z,20.23
2023-02-08T10:10:55.871Z,18.70
2023-02-08T10:16:11.716Z,21.40
2023-02-08T10:18:49.129Z,19.27
2023-02-08T10:21:32.284Z,19.90
2023-02-08T10:24:17.582Z,18.80
2023-02-08T10:26:53.538Z,18.45
2023-02-08T10:29:33.903Z,18.08
2023-02-08T10:32:00.553Z,19.85
2023-02-08T10:34:33.114Z,19.40
2023-02-08T10:37:03.027Z,18.23
2023-02-08T10:39:35.581Z,19.92
2023-02-08T10:42:04.647Z,21.38
2023-02-08T10:44:46.407Z,18.67
2023-02-08T10:47:27.871Z,17.05
2023-02-08T10:50:02.242Z,20.25
2023-02-08T10:52:29.006Z,16.42
2023-02-08T10:54:58.521Z,16.30
2023-02-08T10:57:30.828Z,15.93
2023-02-08T11:00:28.887Z,16.13
2023-02-08T11:03:00.886Z,13.70
2023-02-08T11:05:36.293Z,15.32
2023-02-08T11:08:10.564Z,17.88
2023-02-08T11:10:39.393Z,15.07
2023-02-08T11:13:19.440Z,13.60
2023-02-08T11:15:58.069Z,17.15
2023-02-08T11:18:30.839Z,13.60
2023-02-08T11:21:00.917Z,14.38
2023-02-08T11:23:31.010Z,18.23
2023-02-08T11:26:39.669Z,14.93
2023-02-08T11:32:13.822Z,13.85
2023-02-08T11:34:40.598Z,16.55
2023-02-08T11:37:25.967Z,12.90
2023-02-08T11:39:58.649Z,14.60
2023-02-08T11:42:29.048Z,15.82
2023-02-08T11:44:56.982Z,16.50
2023-02-08T11:47:33.116Z,15.05
2023-02-08T11:50:02.550Z,16.40
2023-02-08T11:52:39.335Z,15.80
2023-02-08T11:55:16.773Z,13.32
2023-02-08T12:00:26.377Z,13.40
2023-02-08T12:03:14.624Z,13.05
2023-02-08T12:05:48.755Z,14.02
2023-02-08T12:08:36.007Z,13.80
2023-02-08T12:11:21.748Z,14.15
2023-02-08T12:14:09.528Z,14.00
2023-02-08T12:16:51.210Z,15.90
2023-02-08T12:19:49.091Z,15.70
2023-02-08T12:22:26.106Z,14.35
2023-02-08T12:25:17.440Z,14.13
2023-02-08T12:28:02.789Z,13.48
2023-02-08T12:30:41.546Z,13.65
2023-02-08T12:33:31.088Z,15.80
2023-02-08T12:36:16.430Z,14.55
2023-02-08T12:39:20.077Z,13.68
2023-02-08T12:42:12.940Z,14.05
2023-02-08T12:44:57.277Z,13.60
2023-02-08T12:48:03.298Z,14.27
2023-02-08T12:50:37.939Z,11.38
2023-02-08T12:53:14.911Z,11.05
2023-02-08T12:55:44.456Z,10.85
2023-02-08T12:58:49.828Z,11.13
2023-02-08T13:01:24.345Z,11.98
2023-02-08T13:04:03.202Z,11.45
2023-02-08T13:06:47.183Z,13.00
2023-02-08T13:09:19.758Z,12.77
2023-02-08T13:11:59.920Z,11.55
2023-02-08T13:14:34.617Z,13.02
2023-02-08T13:17:18.349Z,12.35
2023-02-08T13:19:59.003Z,11.82
2023-02-08T13:22:27.103Z,12.82
2023-02-08T13:25:06.440Z,13.48
2023-02-08T13:27:34.530Z,14.48
2023-02-08T13:30:01.809Z,12.18
2023-02-08T13:32:38.731Z,11.55
2023-02-08T13:35:30.488Z,11.57
2023-02-08T13:38:18.709Z,12.27
2023-02-08T13:40:45.716Z,11.32
2023-02-08T13:43:36.474Z,16.20
2023-02-08T13:46:05.372Z,11.30
2023-02-08T13:48:48.057Z,11.32
2023-02-08T13:51:53.998Z,11.98
2023-02-08T13:54:20.885Z,13.18
2023-02-08T13:56:52.805Z,13.88
2023-02-08T13:59:38.588Z,12.77
2023-02-08T14:02:27.062Z,14.15
2023-02-08T14:05:00.268Z,12.60
2023-02-08T14:07:47.382Z,13.93
2023-02-08T14:10:37.469Z,12.90
2023-02-08T14:13:35.146Z,16.75
2023-02-08T14:16:26.806Z,14.32
2023-02-08T14:18:56.573Z,12.73
2023-02-08T14:21:41.080Z,13.63
2023-02-08T14:24:49.224Z,12.75
2023-02-08T14:27:38.529Z,14.20
2023-02-08T14:30:16.429Z,12.98
2023-02-08T14:32:46.016Z,13.48
2023-02-08T14:35:15.610Z,14.50
2023-02-08T14:37:44.465Z,12.40
2023-02-08T14:40:17.105Z,9.40
2023-02-08T14:43:18.944Z,9.35
2023-02-08T14:45:53.637Z,9.52
2023-02-08T14:48:29.413Z,10.68
2023-02-08T14:51:11.235Z,11.98
2023-02-08T14:53:55.469Z,9.48
2023-02-08T14:56:35.248Z,10.48
2023-02-08T14:59:24.564Z,10.15
2023-02-08T15:02:03.044Z,13.82
2023-02-08T15:04:30.910Z,11.00
2023-02-08T15:07:23.553Z,10.65
2023-02-08T15:09:50.413Z,10.57
2023-02-08T15:12:26.255Z,14.23
2023-02-08T15:14:55.353Z,14.50
2023-02-08T15:17:43.340Z,13.70
2023-02-08T15:20:23.327Z,13.48
2023-02-08T15:23:01.934Z,9.73
2023-02-08T15:25:30.299Z,9.90
2023-02-08T15:28:20.063Z,10.45
2023-02-08T15:33:21.070Z,7.72
2023-02-08T15:35:59.719Z,9.45
2023-02-08T15:38:27.132Z,9.73
2023-02-08T15:41:09.156Z,16.40
2023-02-08T15:43:37.691Z,7.97
2023-02-08T15:46:20.984Z,13.05
2023-02-08T15:48:49.917Z,10.40
2023-02-08T15:51:20.202Z,11.65
2023-02-08T15:53:54.760Z,9.57
2023-02-08T15:56:36.563Z,10.27
2023-02-08T15:59:06.396Z,9.05
2023-02-08T16:01:33.552Z,8.63
2023-02-08T16:04:08.353Z,10.32
2023-02-08T16:06:44.400Z,10.75
2023-02-08T16:09:20.548Z,13.48
2023-02-08T16:11:50.077Z,8.40
2023-02-08T16:14:19.532Z,10.95
2023-02-08T16:16:52.281Z,9.45
2023-02-08T16:19:32.990Z,10.85
2023-02-08T16:22:38.400Z,12.82
2023-02-08T16:25:49.839Z,10.77
2023-02-08T16:28:35.053Z,9.73
2023-02-08T16:31:04.483Z,12.25
2023-02-08T16:33:34.903Z,11.77
2023-02-08T16:36:04.483Z,12.45
2023-02-08T16:38:34.018Z,13.02
2023-02-08T16:41:12.633Z,11.13
2023-02-08T16:43:47.932Z,11.18
2023-02-08T16:46:21.548Z,10.65
2023-02-08T16:48:54.315Z,13.65
2023-02-08T16:51:34.509Z,11.30
2023-02-08T16:54:07.089Z,12.05
2023-02-08T16:56:37.616Z,10.55
2023-02-08T16:59:04.793Z,10.90
2023-02-08T17:01:31.929Z,9.23
2023-02-08T17:03:58.459Z,11.48
2023-02-08T17:06:33.498Z,10.82
2023-02-08T17:09:02.377Z,11.15
2023-02-08T17:11:29.696Z,12.45
2023-02-08T17:13:58.370Z,11.00
2023-02-08T17:16:32.808Z,10.90
2023-02-08T17:19:00.480Z,10.57
2023-02-08T17:21:29.242Z,12.70
2023-02-08T17:23:56.419Z,14.95
2023-02-08T17:26:28.899Z,13.43
2023-02-08T17:28:57.148Z,13.23
2023-02-08T17:31:24.252Z,9.52
2023-02-08T17:33:50.892Z,9.23
2023-02-08T17:36:17.955Z,10.10
2023-02-08T17:38:46.282Z,10.30
2023-02-08T17:41:16.260Z,7.43
2023-02-08T17:43:43.050Z,10.40
2023-02-08T17:46:16.791Z,9.30
2023-02-08T17:48:43.355Z,10.23
2023-02-08T17:51:20.533Z,9.02
2023-02-08T17:53:47.614Z,10.30
2023-02-08T17:56:19.280Z,8.98
2023-02-08T17:58:47.722Z,9.65
2023-02-08T18:01:23.126Z,11.27
2023-02-08T18:03:51.247Z,9.18
2023-02-08T18:06:18.559Z,10.57
2023-02-08T18:08:45.819Z,10.80
2023-02-08T18:11:18.073Z,10.18
2023-02-08T18:13:45.366Z,11.02
2023-02-08T18:16:15.478Z,10.45
2023-02-08T18:18:42.638Z,10.18
2023-02-08T18:21:17.510Z,10.27
2023-02-08T18:23:44.738Z,11.32
2023-02-08T18:26:14.714Z,9.18
2023-02-08T18:28:41.741Z,14.52
2023-02-08T18:31:14.497Z,10.07
2023-02-08T18:33:42.350Z,10.18
2023-02-08T18:36:12.463Z,9.93
2023-02-08T18:38:46.449Z,15.48
2023-02-08T18:41:19.451Z,13.73
2023-02-08T18:43:46.492Z,17.23
2023-02-08T18:46:16.374Z,14.23
2023-02-08T18:48:44.019Z,16.90
2023-02-08T18:51:11.839Z,16.17
2023-02-08T18:53:40.157Z,14.02
2023-02-08T18:56:10.292Z,17.27
2023-02-08T18:58:37.149Z,20.98
2023-02-08T19:01:16.248Z,18.48
2023-02-08T19:03:43.591Z,22.35
2023-02-08T19:06:12.630Z,22.15
2023-02-08T19:08:41.637Z,20.08
2023-02-08T19:11:17.353Z,18.85
2023-02-08T19:13:44.687Z,15.63
2023-02-08T19:16:11.821Z,16.27
2023-02-08T19:18:38.414Z,17.50
2023-02-08T19:21:07.286Z,22.75
2023-02-08T19:23:34.002Z,16.58
2023-02-08T19:26:06.455Z,18.65
2023-02-08T19:28:34.213Z,17.05
2023-02-08T19:31:12.621Z,17.30
2023-02-08T19:33:50.593Z,17.77
2023-02-08T19:36:22.774Z,16.90
2023-02-08T19:38:50.490Z,16.33
2023-02-08T19:41:21.278Z,17.02
2023-02-08T19:43:47.898Z,17.67
2023-02-08T19:46:19.371Z,19.42
2023-02-08T19:48:46.396Z,17.17
2023-02-08T19:51:13.123Z,20.00
2023-02-08T19:53:39.677Z,21.33
2023-02-08T19:56:12.454Z,20.77
2023-02-08T19:58:39.282Z,21.25
2023-02-08T20:01:12.038Z,22.42
2023-02-08T20:03:38.616Z,20.98
2023-02-08T20:06:05.506Z,20.48
2023-02-08T20:08:32.317Z,16.98
2023-02-08T20:10:58.902Z,17.00
2023-02-08T20:13:25.619Z,19.65
2023-02-08T20:15:59.872Z,23.95
2023-02-08T20:18:26.612Z,17.83
2023-02-08T20:21:01.989Z,16.25
2023-02-08T20:23:30.208Z,16.58
2023-02-08T20:26:19.042Z,17.02
2023-02-08T20:28:50.376Z,15.43
2023-02-08T20:31:23.591Z,15.20
2023-02-08T20:33:51.267Z,16.80
2023-02-08T20:36:23.957Z,15.90
2023-02-08T20:38:52.959Z,15.80
2023-02-08T20:41:21.649Z,16.15
2023-02-08T20:43:48.417Z,15.82
2023-02-08T20:46:27.361Z,15.90
2023-02-08T20:48:56.517Z,18.63
2023-02-08T20:51:25.602Z,21.40
2023-02-08T20:53:55.837Z,16.90
2023-02-08T20:56:28.419Z,18.08
2023-02-08T20:58:55.480Z,19.40
2023-02-08T21:01:27.426Z,18.02
2023-02-08T21:03:55.588Z,18.08
2023-02-08T21:06:30.401Z,16.40
2023-02-08T21:08:59.009Z,16.92
2023-02-08T21:11:28.946Z,18.23
2023-02-08T21:13:56.601Z,18.95
2023-02-08T21:16:24.348Z,18.60
2023-02-08T21:18:51.466Z,17.45
2023-02-08T21:21:19.109Z,18.65
2023-02-08T21:23:45.725Z,16.40
2023-02-08T21:26:15.121Z,20.20
2023-02-08T21:28:43.225Z,16.63
2023-02-08T21:31:16.464Z,19.25
2023-02-08T21:33:44.132Z,17.13
2023-02-08T21:36:17.929Z,18.73
2023-02-08T21:38:44.564Z,20.80
2023-02-08T21:41:20.173Z,15.68
2023-02-08T21:43:47.798Z,18.77
2023-02-08T21:46:15.305Z,17.98
2023-02-08T21:49:00.653Z,18.08
2023-02-08T21:51:45.680Z,16.27
2023-02-08T21:54:33.316Z,16.80
2023-02-08T21:57:04.940Z,17.60
2023-02-08T21:59:36.538Z,15.57
2023-02-08T22:02:08.188Z,17.83
2023-02-08T22:04:35.881Z,17.52
2023-02-08T22:07:04.676Z,17.70
2023-02-08T22:09:31.609Z,14.57
2023-02-08T22:11:58.875Z,14.00
2023-02-08T22:14:25.594Z,13.90
2023-02-08T22:16:52.126Z,15.77
2023-02-08T22:19:18.732Z,15.18
2023-02-08T22:21:59.611Z,16.45
2023-02-08T22:24:26.185Z,16.40
2023-02-08T22:26:52.719Z,16.35
2023-02-08T22:29:19.259Z,14.98
2023-02-08T22:31:46.029Z,14.80
2023-02-08T22:34:12.575Z,13.57
2023-02-08T22:36:39.116Z,15.10
2023-02-08T22:39:10.985Z,14.27
2023-02-08T22:41:37.769Z,13.40
2023-02-08T22:44:07.165Z,11.95
2023-02-08T22:46:33.676Z,15.27
2023-02-08T22:49:00.356Z,14.50
2023-02-08T22:51:27.153Z,13.95
2023-02-08T22:53:55.653Z,14.68
2023-02-08T22:56:22.236Z,17.10
2023-02-08T22:58:48.733Z,14.70
2023-02-08T23:01:17.474Z,12.95
2023-02-08T23:03:44.183Z,14.82
2023-02-08T23:06:14.355Z,15.05
2023-02-08T23:08:41.016Z,13.68
2023-02-08T23:11:07.937Z,13.55
2023-02-08T23:13:35.128Z,17.85
2023-02-08T23:16:02.187Z,14.68
2023-02-08T23:18:28.814Z,15.45
2023-02-08T23:20:55.630Z,17.90
2023-02-08T23:23:22.335Z,21.58
2023-02-08T23:25:49.083Z,21.42
2023-02-08T23:28:15.812Z,15.10
2023-02-08T23:30:43.551Z,16.75
2023-02-08T23:33:10.343Z,17.73
2023-02-08T23:35:41.051Z,13.77
2023-02-08T23:38:08.857Z,12.82
2023-02-08T23:40:35.489Z,13.77
2023-02-08T23:43:02.296Z,14.70
2023-02-08T23:45:28.850Z,17.45
2023-02-08T23:47:55.353Z,15.18
2023-02-08T23:50:21.869Z,12.63
2023-02-08T23:52:48.617Z,15.02
2023-02-08T23:55:15.154Z,14.43
2023-02-08T23:57:41.847Z,13.32
